createdAt,value
2018-09-30T00:00:25.698Z,10.45
2018-09-30T00:02:53.408Z,10.47
2018-09-30T00:05:21.293Z,10.55
2018-09-30T00:07:49.140Z,10.56
2018-09-30T00:10:16.950Z,10.53
2018-09-30T00:12:44.653Z,10.49
2018-09-30T00:15:12.392Z,10.53
2018-09-30T00:17:40.091Z,10.45
2018-09-30T00:20:07.806Z,10.49
2018-09-30T00:22:35.585Z,10.37
2018-09-30T00:25:08.876Z,10.37
2018-09-30T00:27:36.693Z,10.46
2018-09-30T00:30:04.690Z,10.47
2018-09-30T00:32:32.448Z,10.40
2018-09-30T00:35:00.290Z,10.29
2018-09-30T00:37:28.126Z,10.20
2018-09-30T00:39:55.844Z,10.12
2018-09-30T00:42:23.673Z,10.00
2018-09-30T00:44:51.519Z,9.95
2018-09-30T00:47:19.323Z,9.81
2018-09-30T00:49:47.209Z,9.79
2018-09-30T00:52:15.010Z,9.73
2018-09-30T00:54:42.757Z,9.61
2018-09-30T00:57:10.828Z,9.55
2018-09-30T00:59:38.654Z,9.47
2018-09-30T01:02:06.491Z,9.45
2018-09-30T01:04:34.420Z,9.49
2018-09-30T01:07:02.225Z,9.46
2018-09-30T01:09:30.022Z,9.46
2018-09-30T01:11:57.985Z,9.43
2018-09-30T01:14:25.861Z,9.33
2018-09-30T01:16:53.723Z,9.28
2018-09-30T01:19:21.666Z,9.25
2018-09-30T01:21:49.462Z,9.22
2018-09-30T01:24:17.309Z,9.18
2018-09-30T01:26:45.093Z,9.16
2018-09-30T01:29:12.878Z,9.17
2018-09-30T01:31:40.685Z,9.17
2018-09-30T01:34:08.502Z,9.09
2018-09-30T01:36:36.262Z,9.10
2018-09-30T01:39:04.546Z,9.09
2018-09-30T01:41:32.314Z,9.18
2018-09-30T01:44:00.381Z,9.25
2018-09-30T01:46:28.185Z,9.27
2018-09-30T01:48:55.920Z,9.21
2018-09-30T01:51:23.684Z,9.13
2018-09-30T01:53:51.439Z,9.13
2018-09-30T01:56:19.230Z,9.13
2018-09-30T01:58:46.932Z,9.04
2018-09-30T02:01:14.752Z,8.97
2018-09-30T02:03:42.539Z,8.97
2018-09-30T02:06:10.276Z,8.99
2018-09-30T02:08:38.009Z,8.96
2018-09-30T02:11:05.927Z,8.94
2018-09-30T02:13:33.699Z,8.88
2018-09-30T02:16:01.433Z,8.88
2018-09-30T02:18:29.271Z,8.84
2018-09-30T02:20:57.045Z,8.84
2018-09-30T02:23:24.958Z,8.79
2018-09-30T02:25:52.755Z,8.72
2018-09-30T02:28:20.489Z,8.73
2018-09-30T02:30:48.187Z,8.76
2018-09-30T02:33:15.977Z,8.69
2018-09-30T02:35:43.922Z,8.59
2018-09-30T02:38:11.915Z,8.60
2018-09-30T02:40:39.762Z,8.52
2018-09-30T02:43:07.652Z,8.46
2018-09-30T02:45:35.492Z,8.49
2018-09-30T02:48:03.385Z,8.57
2018-09-30T02:50:31.233Z,8.65
2018-09-30T02:52:59.089Z,8.66
2018-09-30T02:55:26.955Z,8.65
2018-09-30T02:57:54.903Z,8.67
2018-09-30T03:00:22.653Z,8.68
2018-09-30T03:02:50.494Z,8.58
2018-09-30T03:05:18.421Z,8.56
2018-09-30T03:07:51.810Z,8.51
2018-09-30T03:10:19.565Z,8.50
2018-09-30T03:12:47.274Z,8.41
2018-09-30T03:15:15.146Z,8.29
2018-09-30T03:17:42.864Z,8.23
2018-09-30T03:20:10.726Z,8.17
2018-09-30T03:22:38.457Z,8.13
2018-09-30T03:25:06.226Z,8.08
2018-09-30T03:27:33.957Z,7.98
2018-09-30T03:30:01.786Z,7.95
2018-09-30T03:32:29.522Z,7.88
2018-09-30T03:34:57.297Z,7.89
2018-09-30T03:37:25.038Z,7.88
2018-09-30T03:39:52.803Z,7.83
2018-09-30T03:42:20.555Z,7.76
2018-09-30T03:44:48.318Z,7.71
2018-09-30T03:47:16.111Z,7.69
2018-09-30T03:49:43.823Z,7.62
2018-09-30T03:52:11.863Z,7.55
2018-09-30T03:54:39.781Z,7.54
2018-09-30T03:57:07.724Z,7.50
2018-09-30T03:59:35.490Z,7.42
2018-09-30T04:02:03.472Z,7.40
2018-09-30T04:04:31.297Z,7.37
2018-09-30T04:06:59.055Z,7.39
2018-09-30T04:09:26.852Z,7.45
2018-09-30T04:11:54.725Z,7.49
2018-09-30T04:14:22.577Z,7.51
2018-09-30T04:16:50.408Z,7.55
2018-09-30T04:19:18.247Z,7.55
2018-09-30T04:21:46.124Z,7.50
2018-09-30T04:24:13.957Z,7.53
2018-09-30T04:26:42.431Z,7.51
2018-09-30T04:29:10.220Z,7.50
2018-09-30T04:31:38.200Z,7.46
2018-09-30T04:34:06.083Z,7.47
2018-09-30T04:36:34.704Z,7.54
2018-09-30T04:39:02.975Z,7.72
2018-09-30T04:41:30.866Z,7.92
2018-09-30T04:43:58.778Z,8.12
2018-09-30T04:46:26.535Z,8.32
2018-09-30T04:48:54.250Z,8.47
2018-09-30T04:51:21.901Z,8.54
2018-09-30T04:53:49.675Z,8.65
2018-09-30T04:56:17.682Z,8.75
2018-09-30T04:58:45.521Z,8.79
2018-09-30T05:01:13.376Z,8.84
2018-09-30T05:03:41.205Z,8.88
2018-09-30T05:06:08.978Z,8.92
2018-09-30T05:08:36.903Z,8.96
2018-09-30T05:11:04.767Z,8.96
2018-09-30T05:13:32.590Z,9.01
2018-09-30T05:16:00.426Z,8.99
2018-09-30T05:18:28.177Z,8.92
2018-09-30T05:20:55.929Z,8.89
2018-09-30T05:23:23.799Z,8.85
2018-09-30T05:25:51.578Z,8.85
2018-09-30T05:28:19.360Z,8.91
2018-09-30T05:30:47.183Z,8.89
2018-09-30T05:33:14.996Z,8.85
2018-09-30T05:35:42.960Z,8.97
2018-09-30T05:38:10.853Z,9.21
2018-09-30T05:40:38.583Z,9.22
2018-09-30T05:43:06.396Z,9.19
2018-09-30T05:45:34.139Z,9.27
2018-09-30T06:41:02.563Z,18.63
2018-09-30T06:43:31.492Z,17.45
2018-09-30T06:46:00.373Z,16.50
2018-09-30T06:48:28.516Z,15.80
2018-09-30T06:50:57.422Z,15.09
2018-09-30T06:53:26.382Z,14.38
2018-09-30T06:55:54.658Z,14.08
2018-09-30T06:58:23.599Z,13.95
2018-09-30T07:00:52.508Z,13.96
2018-09-30T07:03:21.374Z,13.93
2018-09-30T07:05:49.443Z,14.04
2018-09-30T07:08:18.406Z,14.30
2018-09-30T07:10:47.436Z,14.76
2018-09-30T07:13:16.417Z,15.07
2018-09-30T07:15:45.394Z,15.30
2018-09-30T07:18:13.554Z,15.73
2018-09-30T07:20:42.372Z,16.13
2018-09-30T07:23:11.364Z,16.49
2018-09-30T07:25:39.368Z,16.93
2018-09-30T07:28:08.353Z,17.59
2018-09-30T07:30:37.032Z,18.23
2018-09-30T07:33:05.944Z,18.96
2018-09-30T07:35:34.765Z,19.61
2018-09-30T07:38:03.591Z,19.89
2018-09-30T07:40:32.373Z,19.87
2018-09-30T07:43:00.379Z,19.80
2018-09-30T07:45:29.037Z,19.30
2018-09-30T07:47:57.959Z,18.78
2018-09-30T07:50:26.798Z,18.58
2018-09-30T07:52:55.705Z,18.39
2018-09-30T07:55:25.091Z,18.28
2018-09-30T07:57:54.044Z,18.31
2018-09-30T08:00:22.946Z,18.60
2018-09-30T08:02:51.780Z,18.93
2018-09-30T08:05:20.620Z,18.89
2018-09-30T08:07:49.512Z,20.18
2018-09-30T08:10:18.372Z,22.50
2018-09-30T08:12:46.414Z,24.47
2018-09-30T08:15:15.192Z,25.78
2018-09-30T08:17:43.966Z,26.73
2018-09-30T08:20:12.763Z,27.47
2018-09-30T08:22:41.624Z,27.70
2018-09-30T08:25:10.621Z,27.77
2018-09-30T08:27:39.860Z,28.20
2018-09-30T08:30:08.708Z,29.05
2018-09-30T08:32:37.646Z,28.91
2018-09-30T08:35:06.642Z,29.19
2018-09-30T08:37:41.245Z,29.38
2018-09-30T08:40:10.129Z,29.40
2018-09-30T08:42:39.002Z,29.48
2018-09-30T08:45:08.078Z,30.09
2018-09-30T08:47:36.940Z,30.08
2018-09-30T08:50:05.905Z,29.90
2018-09-30T08:52:34.724Z,30.25
2018-09-30T08:55:03.654Z,29.92
2018-09-30T08:57:32.548Z,29.70
2018-09-30T09:00:01.385Z,30.02
2018-09-30T09:02:29.511Z,30.31
2018-09-30T09:04:58.388Z,30.50
2018-09-30T09:07:26.568Z,29.78
2018-09-30T09:09:55.412Z,28.88
2018-09-30T09:12:24.390Z,28.81
2018-09-30T09:14:53.388Z,29.22
2018-09-30T09:17:21.622Z,29.46
2018-09-30T09:19:50.642Z,28.95
2018-09-30T09:22:19.581Z,28.08
2018-09-30T09:24:48.416Z,27.14
2018-09-30T09:27:17.254Z,26.54
2018-09-30T09:29:46.061Z,26.17
2018-09-30T09:32:15.386Z,26.15
2018-09-30T09:34:43.406Z,26.06
2018-09-30T09:37:12.328Z,26.43
2018-09-30T09:39:41.033Z,26.97
2018-09-30T09:42:10.047Z,26.94
2018-09-30T09:44:39.058Z,27.12
2018-09-30T09:47:07.996Z,26.74
2018-09-30T09:49:36.837Z,25.82
2018-09-30T09:52:06.063Z,25.15
2018-09-30T09:54:35.249Z,24.76
2018-09-30T09:57:04.040Z,24.44
2018-09-30T09:59:32.964Z,24.46
2018-09-30T10:02:01.906Z,24.23
2018-09-30T10:04:30.720Z,23.97
2018-09-30T10:06:59.810Z,24.09
2018-09-30T10:09:28.707Z,24.47
2018-09-30T10:11:57.610Z,24.56
2018-09-30T10:14:26.522Z,24.97
2018-09-30T10:16:55.447Z,25.31
2018-09-30T10:19:24.452Z,25.89
2018-09-30T10:21:53.243Z,26.20
2018-09-30T10:24:22.049Z,26.34
2018-09-30T10:26:50.899Z,26.47
2018-09-30T10:29:19.804Z,26.34
2018-09-30T10:31:48.705Z,26.37
2018-09-30T10:34:17.645Z,26.34
2018-09-30T10:36:46.668Z,26.30
2018-09-30T10:39:15.875Z,26.32
2018-09-30T10:41:44.701Z,26.39
2018-09-30T10:44:13.617Z,26.51
2018-09-30T10:46:42.385Z,26.54
2018-09-30T10:49:11.046Z,26.60
2018-09-30T10:51:39.935Z,26.70
2018-09-30T10:54:08.785Z,26.97
2018-09-30T10:56:37.596Z,27.03
2018-09-30T10:59:06.374Z,27.39
2018-09-30T11:01:35.336Z,27.80
2018-09-30T11:04:03.390Z,28.26
2018-09-30T11:06:32.219Z,29.23
2018-09-30T11:09:01.020Z,30.28
2018-09-30T11:11:29.943Z,31.49
2018-09-30T11:13:58.808Z,32.19
2018-09-30T11:16:27.720Z,32.93
2018-09-30T11:18:56.708Z,33.60
2018-09-30T11:21:25.679Z,34.37
2018-09-30T11:23:54.661Z,34.85
2018-09-30T11:26:23.611Z,35.73
2018-09-30T11:28:52.605Z,36.01
2018-09-30T11:31:21.381Z,35.98
2018-09-30T11:33:50.047Z,36.36
2018-09-30T11:36:18.964Z,36.71
2018-09-30T11:38:47.844Z,37.23
2018-09-30T11:41:16.803Z,37.76
2018-09-30T11:43:45.813Z,37.48
2018-09-30T11:46:14.748Z,38.26
2018-09-30T11:48:43.591Z,38.46
2018-09-30T11:51:12.548Z,38.90
2018-09-30T11:55:03.200Z,39.28
2018-09-30T11:57:32.377Z,39.21
2018-09-30T12:00:00.388Z,39.30
2018-09-30T12:02:29.560Z,39.76
2018-09-30T12:04:58.378Z,39.55
2018-09-30T12:07:26.437Z,39.55
2018-09-30T12:09:55.088Z,39.91
2018-09-30T12:12:23.941Z,40.23
2018-09-30T12:14:52.783Z,40.06
2018-09-30T12:17:21.651Z,40.04
2018-09-30T12:19:50.628Z,40.84
2018-09-30T12:22:19.648Z,40.82
2018-09-30T12:24:48.661Z,40.81
2018-09-30T12:27:17.664Z,40.87
2018-09-30T12:29:46.653Z,41.11
2018-09-30T12:32:15.726Z,40.65
2018-09-30T12:34:44.649Z,40.98
2018-09-30T12:37:13.463Z,41.14
2018-09-30T12:39:42.385Z,41.75
2018-09-30T12:42:10.410Z,41.96
2018-09-30T12:44:39.254Z,42.18
2018-09-30T12:47:08.012Z,42.41
2018-09-30T12:49:36.789Z,42.40
2018-09-30T12:52:05.709Z,41.47
2018-09-30T12:54:34.635Z,41.58
2018-09-30T12:57:03.645Z,41.45
2018-09-30T12:59:32.711Z,40.95
2018-09-30T13:02:01.682Z,41.06
2018-09-30T13:04:30.631Z,41.20
2018-09-30T13:06:59.615Z,41.55
2018-09-30T13:09:28.662Z,41.51
2018-09-30T13:11:57.504Z,41.16
2018-09-30T13:14:26.385Z,41.04
2018-09-30T13:16:54.550Z,41.27
2018-09-30T13:19:23.863Z,41.55
2018-09-30T13:21:52.789Z,41.97
2018-09-30T13:24:21.709Z,41.42
2018-09-30T13:26:50.674Z,41.92
2018-09-30T13:29:19.576Z,42.22
2018-09-30T13:31:48.533Z,41.71
2018-09-30T13:34:17.303Z,41.72
2018-09-30T13:36:45.527Z,41.38
2018-09-30T13:39:14.396Z,41.13
2018-09-30T13:41:42.573Z,41.52
2018-09-30T13:44:11.388Z,41.34
2018-09-30T13:46:40.069Z,41.75
2018-09-30T13:49:08.910Z,41.85
2018-09-30T13:51:37.810Z,41.40
2018-09-30T13:54:06.728Z,40.75
2018-09-30T13:56:35.636Z,39.75
2018-09-30T13:59:04.375Z,38.66
2018-09-30T14:01:32.386Z,38.34
2018-09-30T14:04:01.063Z,38.63
2018-09-30T14:06:29.953Z,38.80
2018-09-30T14:08:58.810Z,38.52
2018-09-30T14:11:27.727Z,38.20
2018-09-30T14:13:56.703Z,36.81
2018-09-30T14:16:25.638Z,35.95
2018-09-30T14:18:54.644Z,34.51
2018-09-30T14:21:23.718Z,34.12
2018-09-30T14:23:52.675Z,34.07
2018-09-30T14:26:21.624Z,34.05
2018-09-30T14:28:50.691Z,33.96
2018-09-30T14:31:19.747Z,33.75
2018-09-30T14:33:48.598Z,33.34
2018-09-30T14:36:17.624Z,32.89
2018-09-30T14:38:46.552Z,33.13
2018-09-30T14:41:15.369Z,33.60
2018-09-30T14:43:43.379Z,34.06
2018-09-30T14:46:12.234Z,34.35
2018-09-30T14:48:41.052Z,34.56
2018-09-30T14:51:10.021Z,34.59
2018-09-30T14:53:38.801Z,34.26
2018-09-30T14:56:07.725Z,34.48
2018-09-30T14:58:37.314Z,34.51
2018-09-30T15:01:05.593Z,34.54
2018-09-30T15:03:34.369Z,35.08
2018-09-30T15:07:43.331Z,35.85
2018-09-30T15:10:11.765Z,36.02
2018-09-30T15:12:41.298Z,36.31
2018-09-30T15:15:10.566Z,36.11
2018-09-30T15:17:39.507Z,35.96
2018-09-30T15:20:08.380Z,35.92
2018-09-30T15:22:36.507Z,35.82
2018-09-30T15:25:05.369Z,35.58
2018-09-30T15:27:33.378Z,35.44
2018-09-30T15:30:02.091Z,35.24
2018-09-30T15:32:30.940Z,35.04
2018-09-30T15:34:59.774Z,34.69
2018-09-30T15:37:28.653Z,34.45
2018-09-30T15:39:57.568Z,32.51
2018-09-30T15:42:26.369Z,30.56
2018-09-30T15:44:55.047Z,28.85
2018-09-30T15:47:23.930Z,27.43
2018-09-30T15:49:52.696Z,26.41
2018-09-30T15:52:21.628Z,25.52
2018-09-30T15:54:50.372Z,24.87
2018-09-30T15:57:18.519Z,24.24
2018-09-30T15:59:47.373Z,23.53
2018-09-30T16:02:15.363Z,22.83
2018-09-30T16:04:44.083Z,22.23
2018-09-30T16:07:13.048Z,21.69
2018-09-30T16:09:41.925Z,21.33
2018-09-30T16:12:10.800Z,21.19
2018-09-30T16:14:39.701Z,21.04
2018-09-30T16:17:08.607Z,20.89
2018-09-30T16:19:37.369Z,20.60
2018-09-30T16:24:47.550Z,20.08
2018-09-30T16:27:16.501Z,19.84
2018-09-30T16:29:45.597Z,19.81
2018-09-30T16:32:14.546Z,19.72
2018-09-30T16:34:43.371Z,19.47
2018-09-30T16:37:11.364Z,19.41
2018-09-30T16:39:40.053Z,19.21
2018-09-30T16:42:08.921Z,19.21
2018-09-30T16:44:37.839Z,19.10
2018-09-30T16:47:06.785Z,18.99
2018-09-30T16:49:35.705Z,18.88
2018-09-30T16:52:04.669Z,18.70
2018-09-30T16:54:33.622Z,18.54
2018-09-30T16:58:39.370Z,18.36
2018-09-30T17:01:08.374Z,18.34
2018-09-30T17:03:37.667Z,18.26
2018-09-30T17:06:06.798Z,18.21
2018-09-30T17:08:35.638Z,18.06
2018-09-30T17:11:04.638Z,18.06
2018-09-30T17:13:33.625Z,18.29
2018-09-30T17:16:24.362Z,18.05
2018-09-30T17:18:52.353Z,17.93
2018-09-30T17:21:20.373Z,17.80
2018-09-30T17:23:48.641Z,17.68
2018-09-30T17:26:16.774Z,17.53
2018-09-30T17:28:44.954Z,17.51
2018-09-30T17:31:14.443Z,17.41
2018-09-30T17:34:29.818Z,17.36
2018-09-30T17:37:01.175Z,17.24
2018-09-30T17:39:32.791Z,17.18
2018-09-30T17:42:04.234Z,17.10
2018-09-30T17:44:35.660Z,17.08
2018-09-30T17:47:07.797Z,17.03
2018-09-30T17:49:39.242Z,16.93
2018-09-30T17:52:11.019Z,16.83
2018-09-30T17:54:42.703Z,16.76
2018-09-30T17:57:14.032Z,16.73
2018-09-30T17:59:45.890Z,16.61
2018-09-30T18:02:17.575Z,16.64
2018-09-30T18:04:49.037Z,16.64
2018-09-30T18:07:21.608Z,16.61
2018-09-30T18:09:52.885Z,16.46
2018-09-30T18:12:24.673Z,16.45
2018-09-30T18:14:55.670Z,16.40
2018-09-30T18:17:26.780Z,16.30
2018-09-30T18:19:57.763Z,16.32
2018-09-30T18:22:29.399Z,16.26
2018-09-30T18:25:00.655Z,16.23
2018-09-30T18:27:32.030Z,16.24
2018-09-30T18:30:03.557Z,16.12
2018-09-30T18:32:34.774Z,16.12
2018-09-30T18:35:06.651Z,16.09
2018-09-30T18:37:38.021Z,16.10
2018-09-30T18:40:09.643Z,16.03
2018-09-30T18:42:40.883Z,15.97
2018-09-30T18:45:11.678Z,15.93
2018-09-30T18:47:42.813Z,15.94
2018-09-30T18:50:14.442Z,15.88
2018-09-30T18:52:45.681Z,15.81
2018-09-30T18:55:16.829Z,15.91
2018-09-30T18:57:48.078Z,15.91
2018-09-30T19:00:19.695Z,15.72
2018-09-30T19:02:51.249Z,15.67
2018-09-30T19:05:22.649Z,15.68
2018-09-30T19:07:53.902Z,15.58
2018-09-30T19:10:25.364Z,15.54
2018-09-30T19:12:56.688Z,15.55
2018-09-30T19:15:27.919Z,15.50
2018-09-30T19:17:59.363Z,15.52
2018-09-30T19:20:30.664Z,15.47
2018-09-30T19:23:01.799Z,15.41
2018-09-30T19:25:33.369Z,15.43
2018-09-30T19:28:04.653Z,15.50
2018-09-30T19:30:35.876Z,15.52
2018-09-30T19:33:07.589Z,15.45
2018-09-30T19:35:39.423Z,15.42
2018-09-30T19:38:10.796Z,15.38
2018-09-30T19:40:43.691Z,15.43
2018-09-30T19:43:15.266Z,15.45
2018-09-30T19:45:47.645Z,15.50
2018-09-30T19:48:19.370Z,15.47
2018-09-30T19:50:50.729Z,15.42
2018-09-30T19:53:21.692Z,15.35
2018-09-30T19:55:53.023Z,15.26
2018-09-30T19:58:24.628Z,15.20
2018-09-30T20:00:55.833Z,15.21
2018-09-30T20:03:27.548Z,15.13
2018-09-30T20:05:58.933Z,15.03
2018-09-30T20:08:32.553Z,14.95
2018-09-30T20:11:04.544Z,14.88
2018-09-30T20:13:35.676Z,14.82
2018-09-30T20:16:06.692Z,14.73
2018-09-30T20:18:38.082Z,14.66
2018-09-30T20:21:09.577Z,14.73
2018-09-30T20:23:40.693Z,14.70
2018-09-30T20:26:11.704Z,14.64
2018-09-30T20:28:43.478Z,14.60
2018-09-30T20:31:15.610Z,14.51
2018-09-30T20:33:46.885Z,14.39
2018-09-30T20:36:18.657Z,14.28
2018-09-30T20:41:03.049Z,14.28
2018-09-30T20:43:34.627Z,14.25
2018-09-30T20:46:06.205Z,14.22
2018-09-30T20:48:37.807Z,14.20
2018-09-30T20:51:09.801Z,14.10
2018-09-30T20:53:41.638Z,14.04
2018-09-30T20:56:12.781Z,13.96
2018-09-30T20:58:44.839Z,13.89
2018-09-30T21:01:16.245Z,13.94
2018-09-30T21:03:47.635Z,14.05
2018-09-30T21:08:17.476Z,14.00
2018-09-30T21:10:48.659Z,14.08
2018-09-30T21:13:18.622Z,14.12
2018-09-30T21:15:50.435Z,14.07
2018-09-30T21:18:21.679Z,14.04
2018-09-30T21:20:52.802Z,13.94
2018-09-30T21:23:23.843Z,13.92
2018-09-30T21:25:55.237Z,13.85
2018-09-30T21:28:26.707Z,13.83
2018-09-30T21:30:58.243Z,13.79
2018-09-30T21:33:29.655Z,13.75
2018-09-30T21:36:00.931Z,13.72
2018-09-30T21:38:32.373Z,13.81
2018-09-30T21:41:03.922Z,13.75
2018-09-30T21:43:35.389Z,13.81
2018-09-30T21:46:06.636Z,13.82
2018-09-30T21:48:37.836Z,13.80
2018-09-30T21:51:09.538Z,13.67
2018-09-30T21:53:39.628Z,13.58
2018-09-30T21:56:11.013Z,13.49
2018-09-30T21:58:42.625Z,13.41
2018-09-30T22:01:14.007Z,13.31
2018-09-30T22:03:45.300Z,13.29
2018-09-30T22:06:15.487Z,13.27
2018-09-30T22:08:46.689Z,13.20
2018-09-30T22:11:17.771Z,13.23
2018-09-30T22:13:50.228Z,13.27
2018-09-30T22:16:21.587Z,13.21
2018-09-30T22:18:53.048Z,13.27
2018-09-30T22:21:23.896Z,13.33
2018-09-30T22:23:55.323Z,13.36
2018-09-30T22:26:26.633Z,13.40
2018-09-30T22:28:57.785Z,13.38
2018-09-30T22:31:28.665Z,13.23
2018-09-30T22:33:59.798Z,13.36
2018-09-30T22:37:48.693Z,13.34
2018-09-30T22:40:20.119Z,13.35
2018-09-30T22:42:51.686Z,13.30
2018-09-30T22:46:06.776Z,13.21
2018-09-30T22:48:37.869Z,13.16
2018-09-30T22:51:09.393Z,13.04
2018-09-30T22:53:39.625Z,12.94
2018-09-30T22:56:10.836Z,12.88
2018-09-30T22:58:41.800Z,12.79
2018-09-30T23:01:12.836Z,12.76
2018-09-30T23:03:43.690Z,12.66
2018-09-30T23:06:14.915Z,12.66
2018-09-30T23:08:46.401Z,12.62
2018-09-30T23:11:17.652Z,12.58
2018-09-30T23:13:48.649Z,12.52
2018-09-30T23:16:19.771Z,12.48
2018-09-30T23:18:50.806Z,12.41
2018-09-30T23:21:21.678Z,12.37
2018-09-30T23:23:52.781Z,12.34
2018-09-30T23:26:23.683Z,12.30
2018-09-30T23:28:54.817Z,12.24
2018-09-30T23:31:25.889Z,12.22
2018-09-30T23:33:57.436Z,12.20
2018-09-30T23:36:28.662Z,12.19
2018-09-30T23:38:59.738Z,12.18
2018-09-30T23:41:30.813Z,12.16
2018-09-30T23:44:01.776Z,12.19
2018-09-30T23:46:32.826Z,12.18
2018-09-30T23:49:03.832Z,12.14
2018-09-30T23:51:35.411Z,12.08
2018-09-30T23:54:06.634Z,12.03
2018-09-30T23:56:36.605Z,12.01
2018-09-30T23:59:06.614Z,12.02
